Time;durP1;ratioP1;P1;durP2;ratioP2;P2;SDS_P1;SDS_P2;PMS_P1;PMS_P2;Temp;Humidity;BMP_temperature;BMP_pressure;BME280_temperature;BME280_humidity;BME280_pressure;Samples;Min_cycle;Max_cycle;Signal;HPM_P1;HPM_P2
2024/01/14 00:05:40;;;;;;;;;;;1.90;99.90;;;;;;6707236;88;20103;-80
2024/01/14 00:15:42;;;;;;;;;;;2.00;99.90;;;;;;6707331;88;20069;-80
2024/01/14 00:25:42;;;;;;;;;;;1.90;99.90;;;;;;6687273;88;20051;-79
2024/01/14 00:35:43;;;;;;;;;;;2.00;99.90;;;;;;6693674;88;20052;-79
2024/01/14 00:45:43;;;;;;;;;;;2.00;99.90;;;;;;6687316;88;20047;-79
2024/01/14 00:55:44;;;;;;;;;;;2.00;99.90;;;;;;6721468;88;20175;-80
2024/01/14 01:05:44;;;;;;;;;;;1.90;99.90;;;;;;6725669;88;20055;-77
2024/01/14 01:15:45;;;;;;;;;;;1.90;99.90;;;;;;6722027;88;20575;-78
2024/01/14 01:25:45;;;;;;;;;;;1.90;99.90;;;;;;6705639;88;20541;-78
2024/01/14 01:35:46;;;;;;;;;;;1.90;99.90;;;;;;6704882;88;20888;-78
2024/01/14 01:45:47;;;;;;;;;;;1.80;99.90;;;;;;6703253;88;20191;-77
2024/01/14 01:55:47;;;;;;;;;;;1.80;99.90;;;;;;6704326;88;20050;-77
2024/01/14 02:05:51;;;;;;;;;;;1.80;99.90;;;;;;6703745;88;20068;-78
2024/01/14 02:15:52;;;;;;;;;;;1.80;99.90;;;;;;6705166;88;20122;-77
2024/01/14 02:25:52;;;;;;;;;;;2.00;99.90;;;;;;6704191;88;20068;-78
2024/01/14 02:35:52;;;;;;;;;;;1.90;99.90;;;;;;6693175;88;20071;-77
2024/01/14 02:45:53;;;;;;;;;;;1.90;99.90;;;;;;6697324;88;20071;-77
2024/01/14 02:55:53;;;;;;;;;;;1.90;99.90;;;;;;6702848;88;20200;-77
2024/01/14 03:05:54;;;;;;;;;;;1.90;99.90;;;;;;6703879;88;20077;-77
2024/01/14 03:15:54;;;;;;;;;;;1.90;99.90;;;;;;6706052;88;20102;-77
2024/01/14 03:25:55;;;;;;;;;;;1.90;99.90;;;;;;6706148;88;20508;-77
2024/01/14 03:35:55;;;;;;;;;;;1.80;99.90;;;;;;6703416;88;20115;-77
2024/01/14 03:45:56;;;;;;;;;;;1.90;99.90;;;;;;6702717;88;20072;-77
2024/01/14 03:55:56;;;;;;;;;;;2.00;99.90;;;;;;6707669;78;20081;-75
2024/01/14 04:05:58;;;;;;;;;;;2.00;99.90;;;;;;6699658;88;20502;-76
2024/01/14 04:15:58;;;;;;;;;;;1.90;99.90;;;;;;6699679;88;20082;-76
2024/01/14 04:26:03;;;;;;;;;;;2.00;99.90;;;;;;6705675;88;20200;-76
2024/01/14 04:36:04;;;;;;;;;;;2.10;99.90;;;;;;6695071;88;20064;-76
2024/01/14 04:46:08;;;;;;;;;;;2.10;99.90;;;;;;6697674;88;20089;-77
2024/01/14 04:56:08;;;;;;;;;;;2.10;99.90;;;;;;6705649;88;20511;-75
2024/01/14 05:06:09;;;;;;;;;;;2.10;99.90;;;;;;6709368;88;20047;-76
2024/01/14 05:16:09;;;;;;;;;;;2.10;99.90;;;;;;6703513;88;20132;-77
2024/01/14 05:26:10;;;;;;;;;;;2.10;99.90;;;;;;6699031;88;20555;-76
2024/01/14 05:36:10;;;;;;;;;;;2.10;99.90;;;;;;6697091;88;20275;-76
2024/01/14 05:46:11;;;;;;;;;;;2.00;99.90;;;;;;6699584;88;20171;-75
2024/01/14 05:56:11;;;;;;;;;;;2.10;99.90;;;;;;6703619;88;20489;-76
2024/01/14 06:06:12;;;;;;;;;;;2.00;99.90;;;;;;6698739;88;20111;-76
2024/01/14 06:16:12;;;;;;;;;;;2.10;99.90;;;;;;6694676;88;20056;-76
2024/01/14 06:26:16;;;;;;;;;;;2.00;99.90;;;;;;6697772;88;20062;-76
2024/01/14 06:36:20;;;;;;;;;;;1.90;99.90;;;;;;6700472;88;20155;-77
2024/01/14 06:46:21;;;;;;;;;;;1.90;99.90;;;;;;6702758;88;20274;-76
2024/01/14 06:56:21;;;;;;;;;;;1.90;99.90;;;;;;6707424;88;20109;-76
2024/01/14 07:06:22;;;;;;;;;;;1.70;99.90;;;;;;6696363;88;20278;-77
2024/01/14 07:16:22;;;;;;;;;;;1.80;99.90;;;;;;6695730;88;20068;-75
2024/01/14 07:26:23;;;;;;;;;;;1.80;99.90;;;;;;6697403;88;20212;-76
2024/01/14 07:36:24;;;;;;;;;;;1.90;99.90;;;;;;6701916;88;20088;-77
2024/01/14 07:46:24;;;;;;;;;;;1.80;99.90;;;;;;6699338;88;20600;-76
2024/01/14 07:56:25;;;;;;;;;;;1.70;99.90;;;;;;6696085;88;20056;-77
2024/01/14 08:06:27;;;;;;;;;;;1.70;99.90;;;;;;6695025;88;20065;-79
2024/01/14 08:16:27;;;;;;;;;;;1.70;99.90;;;;;;6695393;88;20059;-76
2024/01/14 08:26:27;;;;;;;;;;;1.70;99.90;;;;;;6694561;88;20526;-76
2024/01/14 08:36:28;;;;;;;;;;;1.80;99.90;;;;;;6703518;88;20101;-76
2024/01/14 08:46:29;;;;;;;;;;;1.90;99.90;;;;;;6702696;88;20060;-76
2024/01/14 08:56:29;;;;;;;;;;;1.90;99.90;;;;;;6697038;88;20063;-75
2024/01/14 09:06:30;;;;;;;;;;;2.00;99.90;;;;;;6696598;88;20779;-76
2024/01/14 09:16:30;;;;;;;;;;;1.90;99.90;;;;;;6695177;88;20215;-74
2024/01/14 09:26:31;;;;;;;;;;;1.90;99.90;;;;;;6697629;88;20107;-75
2024/01/14 09:36:32;;;;;;;;;;;2.00;99.90;;;;;;6698956;88;20082;-76
2024/01/14 09:46:33;;;;;;;;;;;1.90;99.90;;;;;;6701900;77;20067;-77
2024/01/14 09:56:35;;;;;;;;;;;1.70;99.90;;;;;;6724418;88;20047;-79
2024/01/14 10:06:43;;;;;;;;;;;1.60;99.90;;;;;;6720738;88;20088;-78
2024/01/14 10:16:44;;;;;;;;;;;1.70;99.90;;;;;;6716158;88;20105;-77
2024/01/14 10:26:44;;;;;;;;;;;1.60;99.90;;;;;;6721691;88;20160;-77
2024/01/14 10:36:45;;;;;;;;;;;1.70;99.90;;;;;;6725383;88;20137;-78
2024/01/14 10:46:47;;;;;;;;;;;1.80;99.90;;;;;;6723731;88;20589;-77
2024/01/14 10:56:50;;;;;;;;;;;2.00;99.90;;;;;;6724940;88;20084;-78
2024/01/14 11:06:55;;;;;;;;;;;2.10;99.90;;;;;;6727509;88;20055;-78
2024/01/14 11:17:03;;;;;;;;;;;2.20;99.90;;;;;;6727913;88;20043;-77
2024/01/14 11:27:03;;;;;;;;;;;2.40;99.90;;;;;;6730794;88;20071;-78
2024/01/14 11:37:04;;;;;;;;;;;2.60;99.90;;;;;;6733044;88;20089;-79
2024/01/14 11:47:06;;;;;;;;;;;2.80;99.90;;;;;;6723363;88;20112;-79
2024/01/14 11:57:27;;;;;;;;;;;2.80;99.90;;;;;;6717352;88;20639;-78
2024/01/14 12:07:27;;;;;;;;;;;3.00;99.90;;;;;;6718008;88;20056;-77
2024/01/14 12:17:28;;;;;;;;;;;3.00;99.90;;;;;;6720957;88;20142;-77
2024/01/14 12:27:29;;;;;;;;;;;3.20;99.90;;;;;;6711934;88;20071;-77
2024/01/14 12:37:30;;;;;;;;;;;3.20;99.90;;;;;;6715900;88;20072;-77
2024/01/14 12:47:30;;;;;;;;;;;3.50;99.90;;;;;;6716519;88;20511;-76
2024/01/14 12:57:31;;;;;;;;;;;3.50;99.90;;;;;;6718534;88;20923;-77
2024/01/14 13:07:31;;;;;;;;;;;3.50;99.90;;;;;;6715271;88;20067;-78
2024/01/14 13:17:32;;;;;;;;;;;3.60;99.90;;;;;;6741207;88;20047;-79
2024/01/14 13:27:33;;;;;;;;;;;3.50;99.90;;;;;;6709204;88;20058;-79
2024/01/14 13:37:37;;;;;;;;;;;3.40;99.90;;;;;;6701892;88;20213;-77
2024/01/14 13:47:37;;;;;;;;;;;3.30;99.90;;;;;;6705559;88;20110;-78
2024/01/14 13:57:38;;;;;;;;;;;3.30;99.90;;;;;;6710617;88;20568;-77
2024/01/14 14:07:38;;;;;;;;;;;2.70;99.90;;;;;;6717351;88;20067;-78
2024/01/14 14:17:39;;;;;;;;;;;2.60;99.90;;;;;;6729172;88;20074;-78
2024/01/14 14:27:39;;;;;;;;;;;2.50;99.90;;;;;;6741127;88;20071;-79
2024/01/14 14:37:40;;;;;;;;;;;2.40;99.90;;;;;;6732825;88;20193;-78
2024/01/14 14:47:40;;;;;;;;;;;2.50;99.90;;;;;;6729351;88;20055;-77
2024/01/14 14:57:41;;;;;;;;;;;2.30;99.90;;;;;;6729312;88;20087;-78
2024/01/14 15:07:41;;;;;;;;;;;2.20;99.90;;;;;;6726156;88;20060;-78
2024/01/14 15:17:42;;;;;;;;;;;2.30;99.90;;;;;;6725535;88;20089;-78
2024/01/14 15:27:42;;;;;;;;;;;2.30;99.90;;;;;;6725549;88;20111;-78
2024/01/14 15:37:43;;;;;;;;;;;2.20;99.90;;;;;;6722735;88;20173;-77
2024/01/14 15:47:44;;;;;;;;;;;2.00;99.90;;;;;;6719223;88;20076;-77
2024/01/14 15:57:45;;;;;;;;;;;2.20;99.90;;;;;;6722459;88;20697;-77
2024/01/14 16:07:45;;;;;;;;;;;2.20;99.90;;;;;;6721016;88;20058;-78
2024/01/14 16:17:48;;;;;;;;;;;2.20;99.90;;;;;;6721131;88;20054;-77
2024/01/14 16:27:48;;;;;;;;;;;2.20;99.90;;;;;;6720467;88;20067;-78
2024/01/14 16:37:49;;;;;;;;;;;2.30;99.90;;;;;;6727250;88;20079;-78
2024/01/14 16:47:49;;;;;;;;;;;2.20;99.90;;;;;;6725242;88;20637;-77
2024/01/14 16:57:50;;;;;;;;;;;2.20;99.90;;;;;;6723764;88;20124;-77
2024/01/14 17:07:50;;;;;;;;;;;2.30;99.90;;;;;;6698888;88;20060;-77
2024/01/14 17:17:51;;;;;;;;;;;2.30;99.90;;;;;;6708884;88;20555;-77
2024/01/14 17:27:51;;;;;;;;;;;2.20;99.90;;;;;;6702966;88;20059;-78
2024/01/14 17:37:52;;;;;;;;;;;2.20;99.90;;;;;;6704303;88;20050;-77
2024/01/14 17:47:52;;;;;;;;;;;2.20;99.90;;;;;;6695446;88;20107;-77
2024/01/14 17:57:53;;;;;;;;;;;2.10;99.90;;;;;;6712612;88;20247;-77
2024/01/14 18:07:56;;;;;;;;;;;2.10;99.90;;;;;;6722140;88;20176;-77
2024/01/14 18:17:59;;;;;;;;;;;2.10;99.90;;;;;;6715331;88;20084;-76
2024/01/14 18:28:00;;;;;;;;;;;2.00;99.90;;;;;;6713291;88;20075;-76
2024/01/14 18:38:00;;;;;;;;;;;2.00;99.90;;;;;;6713073;88;20085;-76
2024/01/14 18:48:02;;;;;;;;;;;2.00;99.90;;;;;;6713180;88;20082;-76
2024/01/14 18:58:02;;;;;;;;;;;1.90;99.90;;;;;;6705852;88;20111;-76
2024/01/14 19:08:03;;;;;;;;;;;1.80;99.90;;;;;;6714658;88;20086;-75
2024/01/14 19:18:04;;;;;;;;;;;1.90;99.90;;;;;;6712643;88;21005;-76
2024/01/14 19:28:04;;;;;;;;;;;1.80;99.90;;;;;;6711612;88;20697;-75
2024/01/14 19:38:05;;;;;;;;;;;1.70;99.90;;;;;;6712970;88;20071;-76
2024/01/14 19:48:05;;;;;;;;;;;1.70;99.90;;;;;;6716123;88;20688;-76
2024/01/14 19:58:06;;;;;;;;;;;1.70;99.90;;;;;;6716210;88;20151;-77
2024/01/14 20:08:06;;;;;;;;;;;1.70;99.90;;;;;;6715779;88;20235;-77
2024/01/14 20:18:07;;;;;;;;;;;1.60;99.90;;;;;;6715694;88;20121;-78
2024/01/14 20:28:07;;;;;;;;;;;1.60;99.90;;;;;;6715064;88;20054;-77
2024/01/14 20:38:08;;;;;;;;;;;1.70;99.90;;;;;;6716275;88;20055;-75
2024/01/14 20:48:08;;;;;;;;;;;1.70;99.90;;;;;;6716396;88;20066;-77
2024/01/14 20:58:09;;;;;;;;;;;1.50;99.90;;;;;;6717180;88;20070;-76
2024/01/14 21:08:09;;;;;;;;;;;1.40;99.90;;;;;;6716744;88;20176;-76
2024/01/14 21:18:10;;;;;;;;;;;1.50;99.90;;;;;;6719671;88;20047;-77
2024/01/14 21:28:11;;;;;;;;;;;1.60;99.90;;;;;;6711169;88;20150;-77
2024/01/14 21:38:11;;;;;;;;;;;1.50;99.90;;;;;;6715945;88;20073;-78
2024/01/14 21:48:12;;;;;;;;;;;1.40;99.90;;;;;;6713709;88;20469;-78
2024/01/14 21:58:12;;;;;;;;;;;1.40;99.90;;;;;;6722277;88;20613;-76
2024/01/14 22:08:13;;;;;;;;;;;1.40;99.90;;;;;;6717488;88;20087;-76
2024/01/14 22:18:13;;;;;;;;;;;1.40;99.90;;;;;;6714482;88;20307;-77
2024/01/14 22:28:15;;;;;;;;;;;1.40;99.90;;;;;;6718237;88;20549;-77
2024/01/14 22:38:16;;;;;;;;;;;1.40;99.90;;;;;;6722736;88;20106;-78
2024/01/14 22:48:16;;;;;;;;;;;1.40;99.90;;;;;;6719066;88;20063;-76
2024/01/14 22:58:17;;;;;;;;;;;1.40;99.90;;;;;;6718427;88;20672;-77
2024/01/14 23:08:17;;;;;;;;;;;1.40;99.90;;;;;;6718371;88;20584;-76
2024/01/14 23:18:18;;;;;;;;;;;1.50;99.90;;;;;;6718676;88;20072;-76
2024/01/14 23:28:18;;;;;;;;;;;1.50;99.90;;;;;;6714333;88;20132;-76
2024/01/14 23:38:19;;;;;;;;;;;1.60;99.90;;;;;;6713108;77;20095;-76
2024/01/14 23:48:19;;;;;;;;;;;1.70;99.90;;;;;;6706498;88;20729;-76
2024/01/14 23:58:20;;;;;;;;;;;1.70;99.90;;;;;;6709309;88;20074;-76
